Time;durP1;ratioP1;P1;durP2;ratioP2;P2;SDS_P1;SDS_P2;PMS_P1;PMS_P2;Temp;Humidity;BMP_temperature;BMP_pressure;BME280_temperature;BME280_humidity;BME280_pressure;Samples;Min_cycle;Max_cycle;Signal;HPM_P1;HPM_P2
2022/09/13 00:00:43;;;;;;;5.03;2.65;;;;;;;2.91;80.58;97627.44;6270495;28;20045;-60
2022/09/13 00:03:47;;;;;;;2.42;2.20;;;;;;;2.85;80.47;97624.13;6271895;28;20129;-62
2022/09/13 00:06:53;;;;;;;2.80;2.50;;;;;;;2.57;80.45;97585.72;6271199;28;20045;-61
2022/09/13 00:09:57;;;;;;;2.60;2.10;;;;;;;2.76;80.53;97629.53;6268106;28;20171;-61
2022/09/13 00:13:05;;;;;;;3.75;2.63;;;;;;;2.72;80.34;97630.47;6270952;28;20423;-63
2022/09/13 00:16:11;;;;;;;3.30;2.40;;;;;;;2.67;80.20;97639.22;6269635;28;20095;-61
2022/09/13 00:19:12;;;;;;;3.33;2.30;;;;;;;2.66;80.42;97631.44;6259610;28;20056;-61
2022/09/13 00:22:17;;;;;;;3.92;2.63;;;;;;;2.64;80.47;97638.44;6280032;28;20049;-61
2022/09/13 00:25:20;;;;;;;2.45;2.05;;;;;;;2.57;80.57;97631.66;6270930;28;20079;-62
2022/09/13 00:28:22;;;;;;;4.38;2.67;;;;;;;2.60;80.60;97648.03;6268465;28;20430;-62
2022/09/13 00:31:26;;;;;;;8.00;4.78;;;;;;;2.63;80.66;97642.78;6270702;28;20049;-62
2022/09/13 00:34:31;;;;;;;7.90;5.07;;;;;;;2.63;80.71;97645.38;6268252;28;20161;-61
2022/09/13 00:37:33;;;;;;;5.65;4.10;;;;;;;2.63;80.76;97647.97;6267720;28;20061;-61
2022/09/13 00:40:37;;;;;;;5.45;4.13;;;;;;;2.64;80.66;97648.84;6267763;28;20041;-62
2022/09/13 00:43:48;;;;;;;5.97;4.43;;;;;;;2.67;80.84;97644.41;6268268;28;20037;-62
2022/09/13 00:46:52;;;;;;;6.05;4.15;;;;;;;2.64;80.90;97648.84;6267063;28;20049;-62
2022/09/13 00:50:10;;;;;;;4.75;3.80;;;;;;;2.66;81.03;97653.13;6268269;28;20041;-62
2022/09/13 00:53:24;;;;;;;6.65;3.85;;;;;;;2.62;80.86;97651.44;6271414;28;20044;-66
2022/09/13 00:56:35;;;;;;;5.32;3.38;;;;;;;2.59;81.00;97661.91;6259905;28;20053;-63
2022/09/13 00:59:42;;;;;;;4.40;2.80;;;;;;;2.58;80.62;97660.22;6270315;28;20045;-61
2022/09/13 01:02:52;;;;;;;4.03;3.10;;;;;;;2.52;80.83;97665.53;6269805;28;20480;-63
2022/09/13 01:06:03;;;;;;;6.80;4.90;;;;;;;2.48;80.71;97663.88;6270126;28;20040;-63
2022/09/13 01:09:06;;;;;;;3.92;3.00;;;;;;;2.40;80.83;97660.56;6269485;28;20735;-74
2022/09/13 01:12:14;;;;;;;3.78;2.83;;;;;;;2.39;80.48;97670.09;6270211;28;20052;-64
2022/09/13 01:15:19;;;;;;;3.15;2.83;;;;;;;2.36;80.56;97677.09;6269972;28;20040;-64
2022/09/13 01:18:20;;;;;;;3.30;3.00;;;;;;;2.34;80.59;97676.28;6268783;28;20055;-64
2022/09/13 01:21:53;;;;;;;3.25;2.95;;;;;;;2.39;80.75;97684.84;6269235;28;20052;-64
2022/09/13 01:25:28;;;;;;;3.13;2.50;;;;;;;2.53;80.69;97682.81;6267811;28;20044;-67
2022/09/13 01:28:32;;;;;;;3.10;2.45;;;;;;;2.75;80.81;97687.59;6270191;28;20045;-64
2022/09/13 01:31:39;;;;;;;;;;;;;;;2.93;81.01;97682.00;6269749;28;20063;-63
2022/09/13 01:34:59;;;;;;;3.22;2.60;;;;;;;3.19;80.17;97688.38;6269206;28;19921;-62
2022/09/13 01:38:12;;;;;;;2.97;2.53;;;;;;;3.52;80.36;97682.38;6269126;28;20530;-62
2022/09/13 01:42:15;;;;;;;2.58;2.38;;;;;;;3.83;79.55;97684.25;6259528;28;20418;-61
2022/09/13 01:45:22;;;;;;;3.72;2.35;;;;;;;4.04;79.17;97673.28;6229705;28;20634;-62
2022/09/13 01:48:45;;;;;;;4.25;2.78;;;;;;;4.24;78.74;97683.16;6261130;28;20481;-61
2022/09/13 01:51:58;;;;;;;6.97;3.00;;;;;;;4.41;78.40;97685.31;6267167;28;20155;-61
2022/09/13 01:55:04;;;;;;;5.47;3.25;;;;;;;4.60;77.81;97679.59;6268501;28;20058;-61
2022/09/13 01:58:20;;;;;;;8.60;3.67;;;;;;;4.72;77.51;97684.47;6267850;28;20056;-61
2022/09/13 02:01:57;;;;;;;10.68;4.50;;;;;;;4.88;77.04;97685.75;6268730;28;20071;-61
2022/09/13 02:05:05;;;;;;;13.27;5.20;;;;;;;4.92;76.56;97684.72;6267824;28;20045;-61
2022/09/13 02:08:16;;;;;;;16.88;6.30;;;;;;;5.02;76.28;97692.31;6268137;28;20045;-63
2022/09/13 02:11:21;;;;;;;24.13;9.10;;;;;;;5.08;76.21;97686.91;6245539;28;20042;-61
2022/09/13 02:14:39;;;;;;;51.65;16.00;;;;;;;5.21;76.10;97690.88;6240489;28;20055;-62
2022/09/13 02:17:47;;;;;;;69.05;21.98;;;;;;;5.37;76.10;97692.06;6284163;28;20079;-62
2022/09/13 02:20:57;;;;;;;102.95;30.90;;;;;;;5.53;75.72;97695.06;6268401;28;20546;-64
2022/09/13 02:24:06;;;;;;;123.25;35.28;;;;;;;5.62;75.77;97680.88;6267542;28;20071;-62
2022/09/13 02:27:19;;;;;;;147.13;42.45;;;;;;;5.76;75.70;97691.72;6268354;28;20140;-61
2022/09/13 02:30:24;;;;;;;142.75;41.92;;;;;;;5.80;75.78;97688.13;6268479;28;20597;-61
2022/09/13 02:33:46;;;;;;;164.35;42.78;;;;;;;5.93;75.73;97692.94;6253825;28;20072;-61
2022/09/13 02:36:53;;;;;;;151.30;45.08;;;;;;;5.96;75.62;97692.88;6268152;28;20041;-62
2022/09/13 02:40:01;;;;;;;168.40;43.20;;;;;;;6.03;75.52;97704.84;6269012;28;20514;-62
2022/09/13 02:43:11;;;;;;;168.07;45.10;;;;;;;6.05;75.76;97696.00;6267905;28;20052;-62
2022/09/13 02:46:34;;;;;;;161.93;43.05;;;;;;;6.16;75.79;97702.66;6266347;28;20045;-58
2022/09/13 02:49:54;;;;;;;172.25;43.25;;;;;;;6.22;75.64;97705.03;6268016;28;20322;-59
2022/09/13 02:53:08;;;;;;;167.30;44.33;;;;;;;6.24;75.49;97709.31;6268128;28;20060;-57
2022/09/13 02:56:30;;;;;;;184.70;46.47;;;;;;;6.23;75.77;97717.22;6267806;28;20049;-55
2022/09/13 02:59:33;;;;;;;158.05;43.90;;;;;;;6.20;75.71;97702.50;6266647;28;20414;-58
2022/09/13 03:02:40;;;;;;;139.90;43.20;;;;;;;6.30;75.62;97711.72;6267756;28;20132;-58
2022/09/13 03:05:42;;;;;;;147.35;43.58;;;;;;;6.28;75.59;97695.25;6267057;28;20057;-58
2022/09/13 03:08:52;;;;;;;134.82;40.05;;;;;;;6.41;75.59;97713.13;6258281;28;20046;-60
2022/09/13 03:11:57;;;;;;;120.13;37.55;;;;;;;6.37;75.34;97711.50;6252494;28;20052;-58
2022/09/13 03:15:04;;;;;;;138.48;40.90;;;;;;;6.26;75.04;97712.75;6267089;28;20076;-60
2022/09/13 03:18:11;;;;;;;109.90;33.95;;;;;;;6.08;75.74;97713.34;6269069;28;20128;-63
2022/09/13 03:21:33;;;;;;;93.28;30.35;;;;;;;6.02;75.93;97717.03;6271904;28;20040;-60
2022/09/13 03:24:35;;;;;;;72.28;24.17;;;;;;;5.90;76.16;97708.72;6271869;28;20143;-53
2022/09/13 03:27:48;;;;;;;49.78;17.83;;;;;;;5.97;76.26;97716.34;6271770;28;20762;-59
2022/09/13 03:31:00;;;;;;;39.30;14.95;;;;;;;6.02;76.45;97718.78;6272800;28;20139;-57
2022/09/13 03:34:29;;;;;;;32.15;13.10;;;;;;;5.97;76.38;97711.13;6271519;28;20040;-65
2022/09/13 03:37:33;;;;;;;25.63;11.63;;;;;;;6.01;77.05;97717.09;6271362;28;20056;-62
2022/09/13 03:40:44;;;;;;;27.85;11.95;;;;;;;6.07;77.11;97717.72;6271355;28;20126;-63
2022/09/13 03:44:01;;;;;;;28.92;11.93;;;;;;;6.17;77.49;97713.06;6271807;28;20049;-62
2022/09/13 03:47:05;;;;;;;28.77;12.48;;;;;;;6.22;77.40;97711.13;6271485;28;20605;-62
2022/09/13 03:50:17;;;;;;;27.95;13.50;;;;;;;6.33;77.06;97713.38;6270766;28;20095;-61
2022/09/13 03:53:24;;;;;;;31.70;14.13;;;;;;;6.42;77.05;97713.03;6271662;28;20455;-62
2022/09/13 03:56:28;;;;;;;32.70;13.50;;;;;;;6.50;77.17;97707.56;6270306;28;20597;-62
2022/09/13 03:59:32;;;;;;;18.80;9.73;;;;;;;6.61;76.84;97709.81;6270964;28;20049;-63
2022/09/13 04:02:36;;;;;;;15.07;7.20;;;;;;;6.66;76.60;97706.13;6271686;28;20183;-63
2022/09/13 04:05:38;;;;;;;13.27;7.18;;;;;;;6.81;76.28;97712.53;6270765;28;20140;-64
2022/09/13 04:08:43;;;;;;;13.45;7.00;;;;;;;6.93;76.32;97698.16;6262357;28;20041;-63
2022/09/13 04:11:47;;;;;;;10.73;5.70;;;;;;;7.09;75.65;97715.00;6254888;28;20036;-63
2022/09/13 04:14:49;;;;;;;15.85;7.40;;;;;;;7.16;75.26;97706.03;6271217;28;20513;-63
2022/09/13 04:17:50;;;;;;;18.40;8.98;;;;;;;7.28;75.49;97714.31;6271084;28;20048;-62
2022/09/13 04:20:53;;;;;;;25.95;11.82;;;;;;;7.37;74.95;97708.72;6278818;28;20039;-62
2022/09/13 04:23:54;;;;;;;20.40;12.50;;;;;;;7.54;74.21;97711.53;6270915;28;20052;-62
2022/09/13 04:26:59;;;;;;;25.55;12.43;;;;;;;7.71;73.82;97717.88;6271033;28;20494;-61
2022/09/13 04:30:01;;;;;;;24.65;11.15;;;;;;;7.82;73.62;97720.94;6270406;28;20131;-62
2022/09/13 04:33:07;;;;;;;21.83;11.45;;;;;;;7.93;73.41;97723.97;6270655;28;20056;-64
2022/09/13 04:36:12;;;;;;;16.40;10.18;;;;;;;7.99;72.99;97723.72;6271197;28;20041;-63
2022/09/13 04:39:13;;;;;;;19.83;10.32;;;;;;;8.08;72.88;97723.31;6270511;28;20041;-62
2022/09/13 04:42:15;;;;;;;24.92;13.10;;;;;;;8.19;72.61;97724.66;6269120;28;20041;-63
2022/09/13 04:45:19;;;;;;;31.20;14.73;;;;;;;8.30;72.30;97730.31;6269858;28;20139;-62
2022/09/13 04:48:23;;;;;;;29.27;15.25;;;;;;;8.41;72.24;97720.25;6267981;28;20040;-62
2022/09/13 04:51:28;;;;;;;31.63;15.80;;;;;;;8.56;71.76;97728.38;6268719;28;20045;-64
2022/09/13 04:54:30;;;;;;;36.95;18.75;;;;;;;8.76;71.35;97725.72;6282183;28;20517;-62
2022/09/13 04:57:31;;;;;;;43.63;23.63;;;;;;;8.96;71.10;97732.72;6294299;28;20060;-62
2022/09/13 05:00:35;;;;;;;38.08;22.15;;;;;;;9.12;70.59;97732.91;6295047;28;20499;-64
2022/09/13 05:03:37;;;;;;;43.90;24.45;;;;;;;9.33;69.65;97731.91;6281227;28;20071;-62
2022/09/13 05:06:41;;;;;;;37.58;20.88;;;;;;;9.54;68.85;97734.44;6269864;28;20132;-63
2022/09/13 05:09:42;;;;;;;41.45;22.85;;;;;;;9.67;68.05;97730.31;6269709;28;20048;-62
2022/09/13 05:12:47;;;;;;;43.50;21.63;;;;;;;9.84;67.63;97738.25;6274235;28;20036;-62
2022/09/13 05:15:49;;;;;;;35.47;19.88;;;;;;;9.88;67.74;97729.31;6269321;28;20052;-62
2022/09/13 05:18:50;;;;;;;36.22;20.33;;;;;;;9.98;67.66;97739.38;6269781;28;20194;-62
2022/09/13 05:21:55;;;;;;;45.45;20.35;;;;;;;10.44;67.01;97742.38;6268800;28;20045;-62
2022/09/13 05:25:00;;;;;;;38.45;19.83;;;;;;;14.79;58.72;97748.41;6269286;28;20414;-63
2022/09/13 05:28:07;;;;;;;31.08;17.33;;;;;;;20.69;45.60;97754.72;6277137;28;20045;-62
2022/09/13 05:31:29;;;;;;;30.02;16.50;;;;;;;25.42;35.49;97766.69;6294316;28;20045;-63
2022/09/13 05:34:33;;;;;;;26.10;14.00;;;;;;;28.76;30.83;97762.25;6294456;28;20048;-61
2022/09/13 05:37:39;;;;;;;32.20;16.13;;;;;;;31.12;26.30;97768.56;6279805;28;20049;-62
2022/09/13 05:40:43;;;;;;;32.25;13.80;;;;;;;33.46;23.50;97766.59;6269207;28;20049;-62
2022/09/13 05:43:44;;;;;;;20.65;12.55;;;;;;;35.08;20.94;97760.72;6248487;28;20048;-62
2022/09/13 05:46:47;;;;;;;23.87;13.03;;;;;;;36.27;19.32;97762.38;6267310;28;20045;-62
2022/09/13 05:49:48;;;;;;;21.55;12.27;;;;;;;37.18;17.60;97749.59;6268694;28;20048;-62
2022/09/13 05:52:58;;;;;;;20.88;13.10;;;;;;;37.98;16.21;97758.50;6269059;28;20049;-62
2022/09/13 05:56:02;;;;;;;27.90;14.70;;;;;;;39.23;15.60;97755.78;6268523;28;20552;-63
2022/09/13 05:59:03;;;;;;;30.67;17.10;;;;;;;40.40;14.91;97754.91;6268188;28;20056;-62
2022/09/13 06:02:09;;;;;;;32.63;17.92;;;;;;;41.38;13.49;97748.44;6269003;28;20138;-62
2022/09/13 06:05:13;;;;;;;29.77;17.05;;;;;;;42.19;12.35;97738.34;6268331;28;20124;-62
2022/09/13 06:08:19;;;;;;;22.38;14.40;;;;;;;42.57;12.25;97742.31;6263078;28;20142;-62
2022/09/13 06:11:27;;;;;;;24.48;13.60;;;;;;;42.60;11.81;97741.75;6255646;28;20045;-62
2022/09/13 06:14:29;;;;;;;18.50;11.63;;;;;;;43.25;11.35;97743.53;6267041;28;20147;-62
2022/09/13 06:17:33;;;;;;;19.83;10.50;;;;;;;43.93;10.69;97740.66;6254393;28;20053;-62
2022/09/13 06:20:37;;;;;;;21.58;12.35;;;;;;;43.43;10.86;97736.47;6265640;28;20049;-62
2022/09/13 06:23:40;;;;;;;20.17;10.00;;;;;;;44.27;10.51;97739.72;6267955;28;20044;-62
2022/09/13 06:26:45;;;;;;;17.52;8.77;;;;;;;45.27;9.84;97739.72;6267939;28;20049;-62
2022/09/13 06:29:47;;;;;;;13.55;8.15;;;;;;;46.14;8.95;97729.75;6267839;28;20573;-62
2022/09/13 06:32:48;;;;;;;13.70;8.20;;;;;;;46.47;8.88;97722.09;6267883;28;20041;-63
2022/09/13 06:35:50;;;;;;;15.32;8.07;;;;;;;46.66;8.64;97719.19;6268345;28;20047;-62
2022/09/13 06:38:55;;;;;;;12.13;7.22;;;;;;;47.36;8.04;97731.66;6245003;28;20045;-62
2022/09/13 06:41:57;;;;;;;11.35;7.20;;;;;;;47.50;7.96;97723.25;6243300;28;20140;-61
2022/09/13 06:45:02;;;;;;;16.38;8.15;;;;;;;47.39;7.87;97721.84;6261228;28;20064;-61
2022/09/13 06:48:10;;;;;;;14.07;8.55;;;;;;;47.52;7.76;97712.63;6267991;28;20140;-62
2022/09/13 06:51:17;;;;;;;14.20;7.60;;;;;;;48.06;7.49;97721.72;6272735;28;20085;-63
2022/09/13 06:54:23;;;;;;;14.95;7.95;;;;;;;47.81;7.74;97719.66;6271373;28;20045;-62
2022/09/13 06:57:25;;;;;;;16.75;7.68;;;;;;;47.00;8.23;97715.03;6273121;28;20081;-62
2022/09/13 07:00:26;;;;;;;13.50;7.18;;;;;;;47.30;7.88;97715.41;6270844;28;20041;-62
2022/09/13 07:03:32;;;;;;;14.98;7.30;;;;;;;46.37;7.80;97716.75;6268606;28;20041;-61
2022/09/13 07:06:39;;;;;;;12.60;7.65;;;;;;;45.26;8.66;97715.81;6260170;28;20033;-61
2022/09/13 07:09:41;;;;;;;16.85;9.25;;;;;;;45.82;8.42;97716.75;6270820;28;20152;-61
2022/09/13 07:12:46;;;;;;;12.02;7.32;;;;;;;42.35;9.85;97706.78;6272496;28;20125;-60
2022/09/13 07:15:50;;;;;;;12.65;7.13;;;;;;;37.07;12.67;97682.72;6248480;28;20187;-59
2022/09/13 07:18:54;;;;;;;10.82;5.40;;;;;;;32.68;15.85;97688.78;6261645;28;20515;-59
2022/09/13 07:21:57;;;;;;;7.70;4.35;;;;;;;29.89;17.91;97679.03;6270754;28;20611;-60
2022/09/13 07:25:01;;;;;;;5.70;3.45;;;;;;;28.14;19.59;97671.59;6272146;28;20048;-60
2022/09/13 07:28:05;;;;;;;6.40;2.95;;;;;;;27.42;20.31;97674.19;6272617;28;20075;-61
2022/09/13 07:31:31;;;;;;;5.13;3.20;;;;;;;27.85;19.94;97674.38;6270977;28;20073;-61
2022/09/13 07:34:34;;;;;;;6.22;3.53;;;;;;;27.65;19.82;97672.22;6272093;28;20546;-60
2022/09/13 07:37:38;;;;;;;5.82;3.67;;;;;;;27.90;19.53;97667.38;6272279;28;20036;-60
2022/09/13 07:40:54;;;;;;;18.95;11.93;;;;;;;26.35;21.24;97667.03;6272310;28;20049;-61
2022/09/13 07:43:57;;;;;;;11.52;5.00;;;;;;;29.21;19.18;97664.47;6271947;28;20044;-61
2022/09/13 07:47:01;;;;;;;10.35;4.07;;;;;;;32.73;15.63;97679.97;6271733;28;20045;-60
2022/09/13 07:50:03;;;;;;;11.70;3.70;;;;;;;36.38;13.27;97690.25;6271361;28;20051;-60
2022/09/13 07:53:05;;;;;;;7.88;3.30;;;;;;;39.35;11.22;97694.22;6270925;28;20428;-61
2022/09/13 07:56:17;;;;;;;8.35;2.53;;;;;;;40.68;10.36;97683.81;6271750;28;20060;-60
2022/09/13 07:59:24;;;;;;;5.93;2.47;;;;;;;40.58;10.05;97690.94;6271734;28;20044;-60
2022/09/13 08:02:27;;;;;;;7.75;2.40;;;;;;;41.93;9.58;97688.69;6271530;28;20560;-62
2022/09/13 08:05:31;;;;;;;6.88;2.80;;;;;;;44.10;8.52;97684.72;6258611;28;20046;-61
2022/09/13 08:08:34;;;;;;;8.63;2.80;;;;;;;45.96;7.68;97708.44;6253783;28;20059;-61
2022/09/13 08:11:38;;;;;;;6.60;2.35;;;;;;;46.45;7.12;97702.09;6271011;28;20118;-59
2022/09/13 08:14:45;;;;;;;4.35;1.70;;;;;;;46.28;6.94;97696.34;6271527;28;20044;-62
2022/09/13 08:17:47;;;;;;;6.25;1.58;;;;;;;45.58;7.45;97695.53;6276835;28;20500;-61
2022/09/13 08:20:57;;;;;;;5.43;1.77;;;;;;;44.11;7.91;97697.50;6296228;28;20502;-61
2022/09/13 08:24:01;;;;;;;5.85;1.60;;;;;;;44.14;7.79;97691.34;6278491;28;20508;-60
2022/09/13 08:27:07;;;;;;;6.38;1.30;;;;;;;45.55;7.38;97693.34;6270286;28;20186;-60
2022/09/13 08:30:09;;;;;;;5.38;1.38;;;;;;;46.56;6.69;97685.97;6270322;28;20079;-60
2022/09/13 08:33:14;;;;;;;8.00;1.45;;;;;;;47.14;6.85;97690.75;6246021;28;20175;-60
2022/09/13 08:36:19;;;;;;;5.68;1.75;;;;;;;44.54;7.53;97686.38;6265992;28;20597;-60
2022/09/13 08:39:23;;;;;;;5.28;1.85;;;;;;;39.05;10.53;97668.13;6270869;28;20415;-60
2022/09/13 08:42:57;;;;;;;6.93;1.88;;;;;;;37.07;11.73;97660.78;6269971;28;20045;-59
2022/09/13 08:46:09;;;;;;;3.75;1.40;;;;;;;35.80;12.40;97658.38;6248769;28;20052;-59
2022/09/13 08:49:19;;;;;;;4.22;1.67;;;;;;;39.08;10.45;97667.59;6268497;28;20059;-60
2022/09/13 08:52:46;;;;;;;3.38;0.75;;;;;;;42.12;8.42;97663.97;6271140;28;20044;-60
2022/09/13 08:56:03;;;;;;;1.58;0.70;;;;;;;42.30;8.47;97670.00;6262726;28;20053;-60
2022/09/13 08:59:30;;;;;;;2.67;0.70;;;;;;;43.75;8.30;97676.84;6270043;28;20045;-61
2022/09/13 09:03:22;;;;;;;1.05;0.65;;;;;;;43.59;7.79;97674.25;6269613;28;20151;-60
2022/09/13 09:06:23;;;;;;;2.83;0.80;;;;;;;43.45;7.53;97664.94;6235493;28;20065;-61
2022/09/13 09:09:30;;;;;;;1.45;0.80;;;;;;;42.51;8.10;97654.09;6268656;28;20056;-60
2022/09/13 09:12:49;;;;;;;2.58;0.57;;;;;;;42.57;8.19;97650.19;6267278;28;20070;-60
2022/09/13 09:16:04;;;;;;;2.20;0.80;;;;;;;41.72;8.51;97645.63;6268115;28;20140;-60
2022/09/13 09:19:35;;;;;;;3.13;0.80;;;;;;;41.95;8.30;97636.69;6269363;28;20116;-60
2022/09/13 09:22:37;;;;;;;3.78;1.00;;;;;;;41.19;8.53;97635.00;6268890;28;20204;-61
2022/09/13 09:25:38;;;;;;;;;;;;;;;42.33;8.27;97631.53;6270364;28;20136;-60
2022/09/13 09:28:46;;;;;;;1.48;0.80;;;;;;;40.93;8.60;97634.13;6269413;28;19920;-60
2022/09/13 09:32:11;;;;;;;2.80;0.80;;;;;;;42.39;8.51;97637.88;6269098;28;20037;-60
2022/09/13 09:35:36;;;;;;;1.95;1.15;;;;;;;43.51;7.83;97644.38;6266434;28;20530;-61
2022/09/13 09:38:43;;;;;;;1.55;0.80;;;;;;;43.89;6.97;97633.44;6268707;28;20045;-61
2022/09/13 09:41:56;;;;;;;2.40;0.70;;;;;;;44.56;6.60;97638.88;6269091;28;20037;-61
2022/09/13 09:45:20;;;;;;;1.98;0.55;;;;;;;44.07;6.73;97640.97;6269237;28;20053;-58
2022/09/13 09:48:26;;;;;;;;;;;;;;;45.76;6.49;97651.25;6268995;28;20060;-61
2022/09/13 09:51:31;;;;;;;0.30;0.30;;;;;;;43.42;7.24;97635.88;6268891;28;19921;-61
2022/09/13 09:54:34;;;;;;;0.57;0.30;;;;;;;43.24;7.56;97629.16;6268154;28;20049;-60
2022/09/13 09:57:55;;;;;;;4.10;3.30;;;;;;;43.97;6.87;97641.13;6268484;28;20044;-60
2022/09/13 10:00:57;;;;;;;5.53;4.15;;;;;;;42.15;7.71;97632.16;6268929;28;20147;-60
2022/09/13 10:04:07;;;;;;;0.95;0.73;;;;;;;40.73;8.46;97617.59;6268415;28;20096;-61
2022/09/13 10:07:31;;;;;;;0.60;0.30;;;;;;;40.56;8.53;97612.31;6268676;28;20448;-60
2022/09/13 10:10:51;;;;;;;0.77;0.40;;;;;;;40.50;8.13;97616.19;6268502;28;20052;-59
2022/09/13 10:14:03;;;;;;;0.47;0.43;;;;;;;40.75;8.24;97624.50;6268139;28;20045;-59
2022/09/13 10:17:17;;;;;;;0.60;0.40;;;;;;;40.88;8.06;97612.09;6268941;28;20060;-59
2022/09/13 10:20:22;;;;;;;0.80;0.60;;;;;;;40.05;8.34;97620.50;6265595;28;20067;-60
2022/09/13 10:23:26;;;;;;;0.77;0.47;;;;;;;36.01;10.43;97600.22;6267222;28;20064;-60
2022/09/13 10:26:32;;;;;;;0.40;0.32;;;;;;;31.86;13.47;97592.47;6267178;28;20052;-58
2022/09/13 10:29:38;;;;;;;1.67;0.50;;;;;;;29.74;14.73;97594.25;6268266;28;20131;-57
2022/09/13 10:32:40;;;;;;;0.65;0.40;;;;;;;28.20;15.94;97581.53;6266303;28;20032;-57
2022/09/13 10:35:47;;;;;;;0.77;0.65;;;;;;;26.50;17.80;97588.88;6264970;28;20053;-58
2022/09/13 10:39:16;;;;;;;0.80;0.60;;;;;;;28.98;15.75;97584.25;6264468;28;20034;-57
2022/09/13 10:42:23;;;;;;;3.28;0.50;;;;;;;32.45;13.39;97594.00;6256049;28;20041;-58
2022/09/13 10:45:30;;;;;;;1.38;0.50;;;;;;;34.31;11.75;97605.63;6255369;28;20037;-55
2022/09/13 10:48:46;;;;;;;1.70;0.40;;;;;;;35.43;11.37;97606.66;6262049;28;20045;-68
2022/09/13 10:51:47;;;;;;;0.40;0.40;;;;;;;36.31;10.50;97610.09;6259511;28;20037;-56
2022/09/13 10:54:49;;;;;;;0.50;0.32;;;;;;;37.08;10.11;97602.06;6264470;28;20045;-62
2022/09/13 10:58:15;;;;;;;0.40;0.40;;;;;;;37.88;9.79;97610.84;6264642;28;20506;-57
2022/09/13 11:01:35;;;;;;;0.38;0.32;;;;;;;37.88;10.00;97599.84;6262228;28;20049;-58
2022/09/13 11:04:52;;;;;;;0.73;0.55;;;;;;;38.26;9.87;97605.50;6267788;28;20215;-59
2022/09/13 11:08:17;;;;;;;0.65;0.65;;;;;;;38.47;9.75;97596.38;6262648;28;20491;-59
2022/09/13 11:11:31;;;;;;;2.13;1.02;;;;;;;38.32;9.54;97588.78;6261539;28;20045;-58
2022/09/13 11:14:47;;;;;;;0.68;0.60;;;;;;;38.07;9.92;97591.28;6269419;28;20055;-58
2022/09/13 11:18:40;;;;;;;1.27;0.40;;;;;;;38.15;10.39;97599.88;6267157;28;20116;-58
2022/09/13 11:21:51;;;;;;;1.10;0.68;;;;;;;37.58;10.65;97577.53;6250325;28;20060;-58
2022/09/13 11:25:13;;;;;;;;;;;;;;;38.14;10.17;97580.94;6268413;28;20036;-57
2022/09/13 11:29:03;;;;;;;0.65;0.50;;;;;;;37.32;10.50;97574.44;6255307;28;20313;-57
2022/09/13 11:32:25;;;;;;;1.45;0.85;;;;;;;36.70;10.66;97566.38;6268418;28;20128;-56
2022/09/13 11:35:45;;;;;;;0.97;0.70;;;;;;;35.53;11.50;97572.13;6267858;28;20053;-57
2022/09/13 11:39:01;;;;;;;1.50;0.65;;;;;;;34.72;11.87;97546.53;6267816;28;20147;-58
2022/09/13 11:42:28;;;;;;;1.33;0.45;;;;;;;33.96;12.69;97551.69;6267398;28;20053;-58
2022/09/13 11:45:53;;;;;;;1.13;0.60;;;;;;;31.46;14.10;97540.97;6268170;28;20129;-57
2022/09/13 11:49:19;;;;;;;1.15;0.90;;;;;;;28.88;16.21;97535.84;6261250;28;20048;-62
2022/09/13 11:52:56;;;;;;;0.63;0.52;;;;;;;26.45;18.31;97531.03;6262373;28;20041;-63
2022/09/13 11:56:01;;;;;;;;;;;;;;;25.03;18.92;97531.28;6263819;28;20103;-63
2022/09/13 11:59:18;;;;;;;1.02;0.60;;;;;;;23.93;20.46;97527.44;6265012;28;20071;-65
2022/09/13 12:02:41;;;;;;;1.88;0.82;;;;;;;22.94;21.61;97530.81;6263440;28;20045;-64
2022/09/13 12:05:58;;;;;;;1.17;0.60;;;;;;;22.24;22.51;97555.03;6265834;28;20109;-63
2022/09/13 12:09:11;;;;;;;0.77;0.70;;;;;;;21.58;23.50;97548.25;6265347;28;20049;-63
2022/09/13 12:12:24;;;;;;;1.27;0.65;;;;;;;21.08;23.72;97542.31;6268397;28;20040;-62
2022/09/13 12:15:35;;;;;;;0.50;0.43;;;;;;;20.88;24.12;97545.22;6265314;28;20045;-72
2022/09/13 12:18:43;;;;;;;1.65;0.77;;;;;;;20.73;24.17;97543.03;6268016;28;20103;-67
2022/09/13 12:21:51;;;;;;;3.22;1.10;;;;;;;20.66;25.33;97549.13;6271090;28;20060;-66
2022/09/13 12:25:02;;;;;;;1.35;1.05;;;;;;;20.51;25.61;97544.22;6270633;28;20051;-66
2022/09/13 12:28:29;;;;;;;2.00;1.42;;;;;;;20.38;25.41;97549.00;6265309;28;20057;-66
2022/09/13 12:31:33;;;;;;;3.75;1.90;;;;;;;20.42;25.41;97545.91;6263653;28;20054;-67
2022/09/13 12:34:47;;;;;;;5.25;3.13;;;;;;;20.62;25.73;97548.56;6267888;28;20033;-66
2022/09/13 12:38:12;;;;;;;1.55;1.30;;;;;;;21.38;24.39;97553.72;6265266;28;20056;-72
2022/09/13 12:41:42;;;;;;;1.00;0.80;;;;;;;22.81;22.63;97553.56;6263266;28;20037;-69
2022/09/13 12:45:25;;;;;;;1.92;1.50;;;;;;;24.05;21.44;97550.25;6264956;28;20043;-66
2022/09/13 12:49:06;;;;;;;3.22;1.42;;;;;;;24.83;20.50;97551.56;6219844;28;20045;-66
2022/09/13 12:52:45;;;;;;;3.72;2.10;;;;;;;25.07;20.58;97554.13;6246303;28;20048;-67
2022/09/13 12:55:52;;;;;;;2.22;1.60;;;;;;;25.16;20.84;97543.38;6196736;28;20185;-67
2022/09/13 12:59:27;;;;;;;1.98;1.20;;;;;;;24.88;20.49;97541.09;6245866;28;20072;-67
2022/09/13 13:02:39;;;;;;;1.40;1.00;;;;;;;24.18;21.49;97531.78;6262117;28;20400;-67
2022/09/13 13:05:45;;;;;;;1.88;1.08;;;;;;;23.42;22.23;97542.78;6246307;28;20117;-66
2022/09/13 13:08:53;;;;;;;1.90;0.90;;;;;;;22.61;22.82;97536.84;6246297;28;20053;-67
2022/09/13 13:11:57;;;;;;;2.28;1.13;;;;;;;22.13;23.65;97545.38;6246612;28;20041;-66
2022/09/13 13:15:03;;;;;;;1.40;0.80;;;;;;;21.62;24.24;97536.22;6246589;28;20045;-67
2022/09/13 13:18:27;;;;;;;1.30;0.90;;;;;;;21.12;24.49;97537.53;6246562;28;20050;-66
2022/09/13 13:21:39;;;;;;;2.28;1.10;;;;;;;20.56;25.29;97541.13;6246117;28;20060;-67
2022/09/13 13:24:49;;;;;;;10.40;5.68;;;;;;;20.00;26.17;97534.75;6245921;28;20045;-67
2022/09/13 13:27:53;;;;;;;2.53;2.13;;;;;;;19.55;26.91;97529.94;6246013;28;20053;-67
2022/09/13 13:31:01;;;;;;;1.88;1.48;;;;;;;19.20;26.88;97535.81;6246011;28;20060;-67
2022/09/13 13:34:08;;;;;;;1.08;0.98;;;;;;;19.01;27.83;97541.94;6245998;28;20124;-67
2022/09/13 13:37:17;;;;;;;1.30;0.93;;;;;;;18.93;27.24;97545.25;6252310;28;20033;-67
2022/09/13 13:40:25;;;;;;;2.30;1.08;;;;;;;18.83;27.21;97549.72;6270819;28;20067;-67
2022/09/13 13:43:32;;;;;;;1.27;0.90;;;;;;;18.54;27.83;97538.88;6270575;28;20545;-67
2022/09/13 13:46:34;;;;;;;1.35;0.90;;;;;;;18.27;27.63;97548.28;6270277;28;20045;-67
2022/09/13 13:49:37;;;;;;;2.63;1.38;;;;;;;18.07;28.30;97541.16;6270038;28;20041;-67
2022/09/13 13:52:45;;;;;;;1.85;1.30;;;;;;;17.89;28.50;97554.19;6270133;28;20133;-66
2022/09/13 13:56:06;;;;;;;4.18;1.75;;;;;;;17.74;28.91;97562.44;6270076;28;20414;-66
2022/09/13 13:59:21;;;;;;;1.10;1.00;;;;;;;17.59;29.07;97552.25;6268626;28;20128;-66
2022/09/13 14:02:37;;;;;;;1.05;0.90;;;;;;;17.47;28.94;97570.91;6270147;28;20037;-67
2022/09/13 14:05:50;;;;;;;4.22;1.58;;;;;;;17.34;29.58;97578.19;6270271;28;20499;-66
2022/09/13 14:09:22;;;;;;;2.13;1.65;;;;;;;17.23;29.44;97583.53;6270016;28;20491;-66
2022/09/13 14:12:59;;;;;;;1.60;1.48;;;;;;;17.13;29.85;97577.28;6269640;28;20052;-67
2022/09/13 14:16:45;;;;;;;3.47;2.03;;;;;;;16.99;29.77;97587.19;6279823;28;20079;-66
2022/09/13 14:19:54;;;;;;;1.20;1.00;;;;;;;16.74;30.40;97582.09;6253366;28;20072;-66
2022/09/13 14:23:15;;;;;;;2.40;1.40;;;;;;;16.58;31.21;97587.75;6269725;28;20466;-67
2022/09/13 14:26:16;;;;;;;8.65;5.85;;;;;;;16.37;31.69;97583.13;6269640;28;20033;-66
2022/09/13 14:29:24;;;;;;;11.60;8.40;;;;;;;16.31;31.91;97593.41;6269763;28;20056;-66
2022/09/13 14:32:41;;;;;;;5.85;3.78;;;;;;;16.14;31.87;97592.88;6263663;28;20190;-68
2022/09/13 14:35:44;;;;;;;3.17;2.40;;;;;;;15.90;33.35;97603.50;6264538;28;20060;-67
2022/09/13 14:38:55;;;;;;;2.92;2.47;;;;;;;15.68;34.13;97604.28;6270286;28;20049;-66
2022/09/13 14:42:09;;;;;;;14.85;7.85;;;;;;;15.43;34.90;97614.97;6270316;28;20522;-67
2022/09/13 14:45:28;;;;;;;9.38;5.15;;;;;;;15.18;35.57;97621.19;6270214;28;20519;-66
2022/09/13 14:48:46;;;;;;;5.15;4.07;;;;;;;15.02;37.06;97621.41;6269638;28;20063;-68
2022/09/13 14:51:54;;;;;;;6.35;3.17;;;;;;;14.79;36.25;97615.09;6269371;28;20144;-66
2022/09/13 14:55:27;;;;;;;12.82;7.53;;;;;;;14.74;38.18;97622.50;6269749;28;20410;-67
2022/09/13 14:58:34;;;;;;;13.68;7.88;;;;;;;14.49;40.89;97618.03;6261965;28;20052;-67